createdAt,value
2018-05-29T00:00:26.198Z,11.27
2018-05-29T00:01:28.746Z,10.52
2018-05-29T00:02:31.360Z,10.80
2018-05-29T00:03:33.851Z,10.90
2018-05-29T00:04:37.099Z,11.40
2018-05-29T00:05:39.851Z,11.38
2018-05-29T00:06:42.355Z,10.23
2018-05-29T00:07:44.864Z,10.75
2018-05-29T00:08:47.352Z,11.55
2018-05-29T00:09:49.868Z,11.15
2018-05-29T00:10:53.339Z,10.57
2018-05-29T00:11:56.603Z,11.88
2018-05-29T00:12:59.103Z,11.05
2018-05-29T00:14:02.348Z,11.38
2018-05-29T00:15:05.204Z,10.90
2018-05-29T00:16:07.873Z,11.27
2018-05-29T00:17:10.374Z,11.80
2018-05-29T00:18:12.872Z,11.27
2018-05-29T00:19:16.114Z,11.65
2018-05-29T00:20:19.674Z,11.70
2018-05-29T00:21:22.296Z,11.38
2018-05-29T00:22:24.774Z,10.43
2018-05-29T00:23:28.043Z,11.38
2018-05-29T00:24:32.032Z,11.27
2018-05-29T00:25:34.759Z,11.32
2018-05-29T00:26:37.264Z,12.35
2018-05-29T00:27:39.743Z,12.27
2018-05-29T00:28:43.028Z,11.45
2018-05-29T00:29:46.276Z,11.52
2018-05-29T00:30:49.027Z,12.13
2018-05-29T00:31:51.543Z,11.57
2018-05-29T00:32:54.791Z,12.13
2018-05-29T00:33:57.295Z,11.55
2018-05-29T00:35:00.540Z,11.57
2018-05-29T00:36:03.293Z,11.85
2018-05-29T00:37:05.805Z,11.98
2018-05-29T00:38:09.061Z,11.82
2018-05-29T00:39:11.551Z,11.90
2018-05-29T00:40:14.221Z,11.35
2018-05-29T00:41:17.662Z,12.13
2018-05-29T00:42:20.169Z,12.10
2018-05-29T00:43:22.823Z,11.38
2018-05-29T00:44:26.855Z,11.70
2018-05-29T00:45:29.669Z,12.05
2018-05-29T00:46:32.199Z,11.70
2018-05-29T00:47:35.444Z,12.63
2018-05-29T00:48:37.924Z,12.07
2018-05-29T00:49:41.944Z,11.98
2018-05-29T00:50:44.699Z,12.15
2018-05-29T00:51:47.971Z,12.32
2018-05-29T00:52:50.444Z,11.90
2018-05-29T00:53:52.927Z,11.73
2018-05-29T00:55:08.372Z,11.68
2018-05-29T00:56:12.029Z,11.23
2018-05-29T00:57:14.528Z,11.88
2018-05-29T00:58:17.012Z,11.12
2018-05-29T00:59:20.261Z,12.03
2018-05-29T01:00:23.116Z,11.80
2018-05-29T01:01:25.884Z,12.35
2018-05-29T01:02:28.397Z,11.68
2018-05-29T01:03:30.876Z,11.48
2018-05-29T01:04:34.124Z,11.93
2018-05-29T01:05:36.971Z,12.52
2018-05-29T01:06:39.468Z,11.93
2018-05-29T01:07:41.952Z,12.37
2018-05-29T01:08:45.945Z,12.27
2018-05-29T01:09:48.424Z,12.13
2018-05-29T01:10:51.994Z,12.52
2018-05-29T01:11:54.496Z,12.10
2018-05-29T01:12:57.739Z,12.32
2018-05-29T01:14:00.232Z,12.73
2018-05-29T01:15:03.757Z,12.63
2018-05-29T01:16:07.144Z,12.63
2018-05-29T01:17:09.659Z,11.95
2018-05-29T01:18:13.647Z,12.43
2018-05-29T01:19:16.121Z,12.37
2018-05-29T01:20:20.290Z,12.27
2018-05-29T01:21:23.024Z,12.25
2018-05-29T01:22:26.268Z,12.57
2018-05-29T01:23:28.752Z,12.52
2018-05-29T01:24:31.992Z,13.10
2018-05-29T01:25:34.768Z,12.93
2018-05-29T01:26:37.285Z,12.65
2018-05-29T01:27:40.531Z,13.38
2018-05-29T01:28:43.013Z,12.63
2018-05-29T01:29:46.995Z,12.32
2018-05-29T01:30:49.775Z,12.23
2018-05-29T01:31:53.076Z,13.07
2018-05-29T01:32:56.320Z,11.95
2018-05-29T01:33:58.796Z,12.43
2018-05-29T01:35:01.271Z,12.68
2018-05-29T01:36:04.028Z,12.57
2018-05-29T01:37:06.531Z,12.80
2018-05-29T01:38:09.021Z,12.98
2018-05-29T01:39:11.495Z,12.80
2018-05-29T01:40:14.263Z,12.05
2018-05-29T01:41:17.078Z,12.68
2018-05-29T01:42:20.355Z,13.07
2018-05-29T01:43:22.836Z,12.57
2018-05-29T01:44:25.307Z,12.93
2018-05-29T01:45:28.017Z,12.90
2018-05-29T01:46:30.523Z,12.63
2018-05-29T01:47:33.028Z,13.65
2018-05-29T01:48:36.276Z,13.20
2018-05-29T01:49:38.754Z,13.05
2018-05-29T01:50:42.386Z,12.32
2018-05-29T01:51:44.901Z,12.40
2018-05-29T01:52:47.395Z,13.65
2018-05-29T01:53:50.635Z,12.85
2018-05-29T01:54:53.115Z,13.35
2018-05-29T01:55:57.482Z,13.02
2018-05-29T01:56:59.976Z,12.85
2018-05-29T01:58:02.479Z,12.10
2018-05-29T01:59:05.724Z,13.48
2018-05-29T02:00:08.472Z,13.52
2018-05-29T02:01:11.273Z,12.88
2018-05-29T02:02:14.536Z,13.55
2018-05-29T02:03:17.038Z,13.05
2018-05-29T02:04:20.313Z,13.73
2018-05-29T02:05:23.029Z,13.38
2018-05-29T02:06:25.847Z,12.98
2018-05-29T02:07:29.107Z,13.57
2018-05-29T02:08:31.604Z,13.15
2018-05-29T02:09:34.852Z,13.40
2018-05-29T02:10:37.612Z,13.20
2018-05-29T02:11:40.116Z,13.30
2018-05-29T02:12:42.596Z,13.43
2018-05-29T02:13:45.860Z,13.85
2018-05-29T02:14:48.336Z,13.62
2018-05-29T02:15:52.176Z,12.80
2018-05-29T02:16:54.676Z,13.43
2018-05-29T02:17:57.151Z,13.68
2018-05-29T02:18:59.659Z,12.15
2018-05-29T02:20:02.136Z,14.45
2018-05-29T02:21:04.853Z,13.18
2018-05-29T02:22:08.116Z,13.45
2018-05-29T02:23:10.588Z,13.82
2018-05-29T02:24:13.084Z,13.52
2018-05-29T02:25:16.633Z,14.10
2018-05-29T02:26:21.018Z,14.75
2018-05-29T02:27:23.524Z,13.30
2018-05-29T02:28:25.999Z,13.10
2018-05-29T02:29:30.004Z,14.43
2018-05-29T02:30:33.434Z,13.93
2018-05-29T02:31:35.936Z,13.75
2018-05-29T02:32:38.427Z,12.98
2018-05-29T02:33:41.669Z,13.57
2018-05-29T02:34:44.168Z,13.52
2018-05-29T02:35:48.417Z,14.40
2018-05-29T02:36:50.925Z,13.57
2018-05-29T02:37:53.408Z,14.23
2018-05-29T02:38:56.652Z,13.30
2018-05-29T02:39:59.153Z,13.55
2018-05-29T02:41:03.400Z,13.85
2018-05-29T02:42:05.900Z,14.48
2018-05-29T02:43:08.376Z,14.15
2018-05-29T02:44:10.852Z,13.98
2018-05-29T02:45:15.146Z,13.18
2018-05-29T02:46:18.897Z,14.20
2018-05-29T02:47:21.408Z,14.00
2018-05-29T02:48:23.884Z,13.90
2018-05-29T02:49:27.868Z,13.30
2018-05-29T02:50:31.005Z,14.02
2018-05-29T02:51:33.516Z,14.35
2018-05-29T02:52:35.996Z,13.60
2018-05-29T02:53:39.240Z,13.45
2018-05-29T02:54:41.723Z,13.60
2018-05-29T02:55:45.728Z,13.82
2018-05-29T02:56:48.988Z,13.45
2018-05-29T02:57:51.531Z,13.43
2018-05-29T02:58:54.006Z,14.13
2018-05-29T02:59:56.486Z,13.32
2018-05-29T03:00:59.276Z,13.50
2018-05-29T03:02:02.549Z,13.95
2018-05-29T03:03:05.028Z,13.40
2018-05-29T03:04:07.503Z,13.75
2018-05-29T03:05:11.853Z,13.93
2018-05-29T03:06:15.344Z,13.57
2018-05-29T03:07:17.852Z,13.75
2018-05-29T03:08:20.576Z,13.77
2018-05-29T03:09:23.080Z,13.85
2018-05-29T03:10:25.857Z,13.32
2018-05-29T03:11:29.136Z,13.65
2018-05-29T03:12:31.615Z,14.02
2018-05-29T03:13:34.374Z,14.30
2018-05-29T03:14:37.644Z,13.57
2018-05-29T03:15:40.439Z,14.10
2018-05-29T03:16:42.988Z,14.18
2018-05-29T03:17:45.464Z,15.05
2018-05-29T03:18:47.939Z,14.23
2018-05-29T03:19:51.183Z,13.73
2018-05-29T03:20:53.985Z,14.32
2018-05-29T03:21:57.280Z,14.55
2018-05-29T03:22:59.760Z,14.75
2018-05-29T03:24:03.008Z,14.00
2018-05-29T03:25:05.843Z,14.30
2018-05-29T03:26:08.662Z,14.23
2018-05-29T03:27:11.940Z,14.95
2018-05-29T03:28:14.415Z,15.02
2018-05-29T03:29:17.660Z,14.35
2018-05-29T03:30:20.307Z,14.07
2018-05-29T03:31:22.816Z,14.68
2018-05-29T03:32:25.313Z,14.43
2018-05-29T03:33:28.552Z,14.85
2018-05-29T03:34:31.066Z,14.70
2018-05-29T03:35:33.760Z,13.82
2018-05-29T03:36:36.271Z,14.25
2018-05-29T03:37:38.769Z,14.15
2018-05-29T03:38:42.032Z,14.65
2018-05-29T03:39:44.508Z,13.77
2018-05-29T03:40:48.068Z,14.23
2018-05-29T03:41:51.327Z,13.48
2018-05-29T03:42:53.833Z,15.25
2018-05-29T03:43:57.815Z,14.73
2018-05-29T03:45:00.295Z,14.87
2018-05-29T03:46:02.947Z,15.27
2018-05-29T03:47:06.220Z,14.87
2018-05-29T03:48:08.716Z,15.15
2018-05-29T03:49:11.192Z,15.90
2018-05-29T03:50:15.097Z,14.27
2018-05-29T03:51:17.894Z,15.40
2018-05-29T03:52:20.375Z,14.38
2018-05-29T03:53:23.229Z,15.18
2018-05-29T03:54:25.747Z,14.68
2018-05-29T03:55:28.512Z,13.98
2018-05-29T03:56:31.033Z,14.75
2018-05-29T03:57:33.507Z,15.50
2018-05-29T03:58:36.008Z,15.07
2018-05-29T03:59:38.484Z,15.30
2018-05-29T04:00:42.015Z,15.27
2018-05-29T04:01:44.527Z,15.63
2018-05-29T04:02:47.008Z,15.20
2018-05-29T04:03:50.376Z,15.60
2018-05-29T04:04:52.852Z,15.32
2018-05-29T04:05:56.384Z,15.75
2018-05-29T04:06:58.892Z,15.43
2018-05-29T04:08:01.369Z,15.40
2018-05-29T04:09:03.872Z,15.27
2018-05-29T04:10:06.654Z,15.75
2018-05-29T04:11:10.138Z,16.42
2018-05-29T04:12:12.627Z,17.30
2018-05-29T04:13:15.105Z,17.23
2018-05-29T04:14:17.599Z,17.42
2018-05-29T04:15:21.173Z,17.30
2018-05-29T04:16:26.217Z,15.90
2018-05-29T04:17:29.457Z,15.82
2018-05-29T04:18:31.932Z,15.55
2018-05-29T04:19:34.429Z,16.23
2018-05-29T04:20:37.965Z,16.35
2018-05-29T04:21:40.456Z,17.23
2018-05-29T04:22:42.932Z,16.37
2018-05-29T04:23:45.412Z,17.83
2018-05-29T04:24:48.679Z,20.52
2018-05-29T04:25:51.397Z,21.40
2018-05-29T04:26:53.907Z,19.67
2018-05-29T04:27:56.380Z,18.83
2018-05-29T04:28:58.852Z,18.45
2018-05-29T04:30:01.349Z,19.05
2018-05-29T04:31:04.024Z,17.42
2018-05-29T04:32:06.524Z,16.60
2018-05-29T04:33:09.000Z,16.70
2018-05-29T04:34:11.475Z,17.05
2018-05-29T04:35:15.109Z,16.35
2018-05-29T04:36:17.881Z,17.48
2018-05-29T04:37:20.391Z,16.33
2018-05-29T04:38:22.872Z,15.38
2018-05-29T04:39:25.347Z,16.55
2018-05-29T04:40:28.818Z,16.85
2018-05-29T04:41:32.083Z,17.27
2018-05-29T04:42:34.568Z,16.73
2018-05-29T04:43:37.822Z,16.60
2018-05-29T04:44:40.304Z,16.60
2018-05-29T04:45:43.028Z,17.35
2018-05-29T04:46:45.527Z,17.83
2018-05-29T04:47:48.008Z,16.45
2018-05-29T04:48:50.483Z,17.02
2018-05-29T04:49:53.728Z,16.20
2018-05-29T04:50:56.447Z,16.58
2018-05-29T04:51:58.948Z,17.08
2018-05-29T04:53:01.424Z,17.80
2018-05-29T04:54:03.896Z,17.37
2018-05-29T04:55:06.687Z,18.35
2018-05-29T04:56:10.333Z,18.27
2018-05-29T04:57:12.831Z,18.12
2018-05-29T04:58:15.305Z,17.35
2018-05-29T04:59:17.787Z,17.23
2018-05-29T05:00:21.262Z,17.62
2018-05-29T05:01:24.909Z,18.40
2018-05-29T05:02:27.453Z,18.17
2018-05-29T05:03:30.671Z,19.20
2018-05-29T05:04:33.143Z,17.30
2018-05-29T05:05:35.893Z,18.15
2018-05-29T05:06:38.431Z,19.30
2018-05-29T05:07:41.675Z,21.45
2018-05-29T05:08:44.155Z,19.70
2018-05-29T05:09:48.140Z,18.92
2018-05-29T05:10:51.695Z,18.33
2018-05-29T05:11:54.227Z,18.35
2018-05-29T05:12:57.470Z,17.60
2018-05-29T05:14:00.007Z,18.75
2018-05-29T05:15:02.553Z,19.23
2018-05-29T05:16:05.959Z,19.20
2018-05-29T05:17:08.484Z,18.52
2018-05-29T05:18:11.728Z,19.15
2018-05-29T05:19:14.216Z,18.95
2018-05-29T05:20:16.955Z,18.00
2018-05-29T05:21:20.582Z,19.33
2018-05-29T05:22:23.865Z,18.08
2018-05-29T05:23:26.339Z,18.00
2018-05-29T05:24:30.323Z,18.73
2018-05-29T05:25:33.054Z,17.40
2018-05-29T05:26:35.551Z,17.50
2018-05-29T05:27:38.056Z,17.15
2018-05-29T05:28:41.300Z,18.33
2018-05-29T05:29:43.783Z,18.42
2018-05-29T05:30:47.198Z,17.90
2018-05-29T05:31:49.696Z,18.33
2018-05-29T05:32:52.188Z,17.92
2018-05-29T05:33:54.669Z,18.85
2018-05-29T05:34:57.143Z,16.70
2018-05-29T05:36:01.995Z,17.12
2018-05-29T05:37:04.509Z,16.58
2018-05-29T05:38:07.003Z,16.98
2018-05-29T05:39:10.246Z,16.70
2018-05-29T05:40:13.081Z,17.10
2018-05-29T05:41:15.892Z,16.75
2018-05-29T05:42:19.887Z,17.50
2018-05-29T05:43:23.280Z,16.77
2018-05-29T05:44:25.760Z,16.67
2018-05-29T05:45:29.190Z,16.35
2018-05-29T05:46:31.696Z,16.50
2018-05-29T05:47:34.171Z,17.02
2018-05-29T05:48:37.440Z,17.37
2018-05-29T05:49:39.924Z,16.98
2018-05-29T05:50:43.456Z,16.42
2018-05-29T05:51:45.969Z,17.73
2018-05-29T05:52:48.488Z,17.52
2018-05-29T05:53:51.724Z,16.92
2018-05-29T05:54:54.199Z,17.60
2018-05-29T05:55:57.722Z,17.48
2018-05-29T05:57:00.245Z,17.52
2018-05-29T05:58:03.502Z,15.90
2018-05-29T05:59:06.008Z,17.60
2018-05-29T06:00:09.526Z,16.85
2018-05-29T06:01:12.299Z,16.62
2018-05-29T06:02:14.805Z,16.87
2018-05-29T06:03:17.327Z,16.95
2018-05-29T06:04:19.847Z,15.25
2018-05-29T06:05:23.385Z,15.80
2018-05-29T06:06:26.074Z,16.35
2018-05-29T06:07:28.582Z,16.75
2018-05-29T06:08:31.836Z,16.70
2018-05-29T06:09:34.461Z,16.70
2018-05-29T06:10:37.240Z,16.37
2018-05-29T06:11:39.837Z,16.67
2018-05-29T06:12:43.104Z,15.90
2018-05-29T06:13:45.680Z,16.23
2018-05-29T06:14:48.198Z,15.38
2018-05-29T06:15:51.589Z,14.65
2018-05-29T06:16:54.085Z,15.57
2018-05-29T06:17:56.608Z,15.05
2018-05-29T06:18:59.847Z,15.27
2018-05-29T06:20:02.353Z,15.38
2018-05-29T06:21:07.354Z,15.05
2018-05-29T06:22:11.353Z,15.07
2018-05-29T06:23:13.836Z,14.52
2018-05-29T06:24:17.109Z,14.07
2018-05-29T06:25:20.955Z,13.15
2018-05-29T06:26:23.830Z,13.30
2018-05-29T06:27:26.341Z,12.48
2018-05-29T06:28:29.621Z,11.10
2018-05-29T06:29:32.104Z,11.30
2018-05-29T06:30:34.917Z,10.88
2018-05-29T06:31:37.721Z,11.48
2018-05-29T06:32:41.757Z,9.95
2018-05-29T06:33:45.069Z,9.75
2018-05-29T06:34:47.548Z,10.23
2018-05-29T06:35:50.312Z,9.60
2018-05-29T06:36:52.825Z,9.70
2018-05-29T06:37:56.064Z,9.18
2018-05-29T06:38:58.532Z,8.70
2018-05-29T06:40:01.008Z,9.35
2018-05-29T06:41:03.856Z,8.80
2018-05-29T06:42:06.352Z,9.23
2018-05-29T06:43:08.840Z,8.90
2018-05-29T06:44:12.819Z,8.73
2018-05-29T06:45:15.659Z,8.85
2018-05-29T06:46:18.475Z,8.73
2018-05-29T06:47:21.723Z,9.02
2018-05-29T06:48:24.200Z,8.90
2018-05-29T06:49:26.664Z,9.00
2018-05-29T06:50:29.413Z,9.20
2018-05-29T06:51:31.935Z,8.75
2018-05-29T06:52:35.186Z,9.50
2018-05-29T06:53:37.669Z,10.07
2018-05-29T06:54:40.143Z,10.13
2018-05-29T06:55:44.440Z,9.30
2018-05-29T06:56:47.731Z,9.38
2018-05-29T06:57:51.730Z,8.70
2018-05-29T06:58:54.200Z,9.02
2018-05-29T06:59:57.444Z,9.10
2018-05-29T07:01:00.137Z,8.80
2018-05-29T07:02:03.425Z,9.15
2018-05-29T07:03:05.888Z,9.45
2018-05-29T07:04:08.364Z,8.82
2018-05-29T07:05:11.182Z,8.45
2018-05-29T07:06:14.057Z,8.90
2018-05-29T07:07:16.564Z,8.55
2018-05-29T07:08:19.044Z,8.48
2018-05-29T07:09:29.039Z,9.00
2018-05-29T07:10:31.810Z,8.23
2018-05-29T07:11:34.299Z,8.38
2018-05-29T07:12:36.787Z,8.52
2018-05-29T07:13:40.032Z,7.85
2018-05-29T07:14:42.503Z,7.65
2018-05-29T07:15:45.299Z,8.45
2018-05-29T07:16:48.555Z,7.85
2018-05-29T07:17:51.053Z,7.65
2018-05-29T07:18:54.332Z,7.95
2018-05-29T07:19:58.322Z,7.20
2018-05-29T07:21:01.046Z,6.93
2018-05-29T07:22:03.532Z,7.40
2018-05-29T07:23:06.032Z,7.20
2018-05-29T07:24:08.504Z,7.57
2018-05-29T07:25:11.256Z,6.97
2018-05-29T07:26:15.930Z,7.62
2018-05-29T07:27:18.433Z,6.97
2018-05-29T07:28:20.937Z,6.97
2018-05-29T07:29:24.179Z,6.60
2018-05-29T07:30:26.914Z,6.80
2018-05-29T07:31:29.414Z,6.45
2018-05-29T07:32:31.891Z,7.28
2018-05-29T07:33:34.384Z,7.80
2018-05-29T07:34:37.623Z,6.78
2018-05-29T07:35:41.281Z,6.60
2018-05-29T07:36:43.779Z,7.57
2018-05-29T07:37:46.252Z,7.20
2018-05-29T07:38:48.748Z,7.15
2018-05-29T07:39:51.987Z,8.45
2018-05-29T07:40:54.681Z,7.68
2018-05-29T07:41:57.932Z,7.47
2018-05-29T07:43:00.407Z,7.12
2018-05-29T07:44:02.904Z,7.20
2018-05-29T07:45:06.319Z,7.30
2018-05-29T07:46:10.634Z,7.40
2018-05-29T07:47:13.128Z,7.45
2018-05-29T07:48:15.600Z,7.50
2018-05-29T07:49:18.096Z,7.40
2018-05-29T07:50:21.645Z,6.95
2018-05-29T07:51:24.490Z,8.10
2018-05-29T07:52:26.992Z,7.22
2018-05-29T07:53:29.463Z,7.37
2018-05-29T07:54:31.959Z,7.43
2018-05-29T07:55:35.380Z,7.03
2018-05-29T07:56:37.872Z,7.55
2018-05-29T07:57:40.341Z,7.18
2018-05-29T07:58:42.820Z,7.25
2018-05-29T07:59:46.084Z,7.32
2018-05-29T08:00:48.921Z,7.87
2018-05-29T08:01:51.424Z,7.35
2018-05-29T08:02:53.900Z,7.15
2018-05-29T08:03:57.136Z,7.53
2018-05-29T08:04:59.633Z,7.47
2018-05-29T08:06:02.471Z,8.05
2018-05-29T08:07:04.984Z,10.10
2018-05-29T08:08:08.231Z,11.32
2018-05-29T08:09:10.707Z,8.20
2018-05-29T08:10:13.417Z,8.23
2018-05-29T08:11:16.165Z,8.43
2018-05-29T08:12:20.160Z,7.80
2018-05-29T08:13:22.632Z,8.35
2018-05-29T08:14:25.108Z,7.75
2018-05-29T08:15:28.642Z,7.93
2018-05-29T08:16:31.136Z,8.05
2018-05-29T08:17:33.612Z,8.18
2018-05-29T08:18:36.118Z,8.07
2018-05-29T08:19:39.330Z,7.50
2018-05-29T08:20:42.123Z,8.23
2018-05-29T08:21:45.384Z,7.82
2018-05-29T08:22:47.855Z,7.60
2018-05-29T08:23:50.328Z,8.52
2018-05-29T08:24:52.801Z,7.72
2018-05-29T08:25:56.200Z,7.85
2018-05-29T08:26:59.456Z,8.35
2018-05-29T08:28:01.929Z,7.85
2018-05-29T08:29:04.399Z,8.30
2018-05-29T08:30:07.167Z,8.25
2018-05-29T08:31:10.779Z,8.68
2018-05-29T08:32:13.290Z,8.00
2018-05-29T08:33:15.760Z,8.20
2018-05-29T08:34:18.232Z,7.95
2018-05-29T08:35:21.710Z,8.23
2018-05-29T08:36:24.515Z,8.40
2018-05-29T08:37:26.999Z,8.40
2018-05-29T08:38:29.467Z,8.10
2018-05-29T08:39:31.992Z,8.02
2018-05-29T08:40:35.462Z,8.43
2018-05-29T08:41:37.988Z,8.23
2018-05-29T08:42:41.224Z,7.90
2018-05-29T08:43:43.696Z,8.93
2018-05-29T08:44:46.171Z,8.32
2018-05-29T08:45:49.016Z,8.55
2018-05-29T08:46:51.539Z,8.35
2018-05-29T08:47:54.008Z,7.87
2018-05-29T08:48:57.251Z,8.38
2018-05-29T08:49:59.724Z,8.38
2018-05-29T08:51:02.869Z,9.98
2018-05-29T08:52:05.403Z,9.77
2018-05-29T08:53:08.645Z,8.35
2018-05-29T08:54:11.115Z,8.68
2018-05-29T08:55:13.750Z,8.18
2018-05-29T08:56:16.978Z,8.03
2018-05-29T08:57:19.507Z,8.73
2018-05-29T08:58:21.961Z,8.23
2018-05-29T08:59:24.442Z,8.88
2018-05-29T09:00:27.131Z,7.80
2018-05-29T09:01:29.620Z,8.73
2018-05-29T09:02:32.104Z,8.67
2018-05-29T09:03:34.580Z,8.65
2018-05-29T09:04:37.066Z,8.90
2018-05-29T09:05:39.929Z,8.38
2018-05-29T09:06:42.415Z,8.27
2018-05-29T09:07:44.916Z,8.57
2018-05-29T09:08:48.154Z,8.52
2018-05-29T09:09:50.620Z,8.63
2018-05-29T09:10:54.236Z,9.20
2018-05-29T09:11:56.775Z,8.35
2018-05-29T09:12:59.248Z,8.67
2018-05-29T09:14:01.728Z,9.30
2018-05-29T09:15:04.506Z,8.52
2018-05-29T09:16:07.336Z,8.03
2018-05-29T09:17:09.828Z,8.55
2018-05-29T09:18:12.336Z,8.18
2018-05-29T09:19:14.820Z,8.20
2018-05-29T09:20:17.602Z,8.73
2018-05-29T09:21:21.191Z,8.27
2018-05-29T09:22:23.687Z,8.38
2018-05-29T09:23:26.191Z,8.55
2018-05-29T09:24:29.429Z,8.40
2018-05-29T09:25:32.174Z,8.53
2018-05-29T09:26:34.688Z,10.00
2018-05-29T09:27:37.921Z,9.43
2018-05-29T09:28:40.425Z,9.00
2018-05-29T09:29:42.915Z,8.40
2018-05-29T09:30:45.623Z,9.10
2018-05-29T09:31:48.124Z,9.00
2018-05-29T09:32:50.603Z,7.93
2018-05-29T09:33:54.608Z,7.80
2018-05-29T09:34:57.840Z,8.57
2018-05-29T09:36:00.606Z,8.43
2018-05-29T09:37:03.116Z,8.53
2018-05-29T09:38:07.092Z,8.57
2018-05-29T09:39:09.588Z,8.23
2018-05-29T09:40:12.467Z,7.95
2018-05-29T09:41:15.287Z,8.07
2018-05-29T09:42:17.780Z,8.93
2018-05-29T09:43:20.254Z,8.40
2018-05-29T09:44:22.732Z,8.43
2018-05-29T09:45:25.486Z,8.97
2018-05-29T09:46:28.741Z,8.50
2018-05-29T09:47:31.220Z,9.00
2018-05-29T09:48:33.691Z,8.27
2018-05-29T09:49:36.437Z,8.00
2018-05-29T09:50:39.092Z,9.03
2018-05-29T09:51:41.584Z,9.13
2018-05-29T09:52:44.048Z,9.60
2018-05-29T09:53:46.519Z,8.33
2018-05-29T09:54:49.255Z,8.70
2018-05-29T09:55:52.034Z,10.03
2018-05-29T09:56:54.531Z,7.80
2018-05-29T09:57:56.999Z,8.37
2018-05-29T09:58:59.460Z,8.33
2018-05-29T10:00:01.970Z,7.93
2018-05-29T10:01:04.766Z,8.10
2018-05-29T10:02:07.268Z,8.20
2018-05-29T10:03:09.732Z,8.20
2018-05-29T10:04:12.212Z,9.23
2018-05-29T10:05:16.567Z,9.03
2018-05-29T10:06:19.378Z,8.90
2018-05-29T10:07:21.871Z,8.97
2018-05-29T10:08:25.111Z,9.30
2018-05-29T10:09:27.591Z,8.97
2018-05-29T10:10:30.360Z,8.73
2018-05-29T10:11:32.840Z,8.83
2018-05-29T10:12:35.304Z,8.93
2018-05-29T10:13:38.541Z,8.20
2018-05-29T10:14:41.012Z,8.43
2018-05-29T10:15:43.813Z,7.82
2018-05-29T10:16:46.295Z,8.10
2018-05-29T10:17:48.756Z,7.97
2018-05-29T10:18:51.219Z,8.13
2018-05-29T10:19:53.683Z,8.70
2018-05-29T10:20:56.501Z,10.13
2018-05-29T10:21:59.000Z,9.17
2018-05-29T10:23:01.468Z,8.93
2018-05-29T10:24:03.944Z,8.48
2018-05-29T10:25:06.663Z,8.20
2018-05-29T10:26:09.435Z,8.00
2018-05-29T10:27:11.925Z,7.80
2018-05-29T10:28:14.397Z,8.23
2018-05-29T10:29:16.870Z,8.43
2018-05-29T10:30:20.418Z,7.97
2018-05-29T10:31:23.291Z,8.87
2018-05-29T10:32:25.772Z,8.20
2018-05-29T10:33:28.248Z,8.40
2018-05-29T10:34:30.716Z,9.23
2018-05-29T10:35:33.373Z,9.73
2018-05-29T10:36:35.889Z,9.87
2018-05-29T10:37:39.125Z,9.67
2018-05-29T10:38:41.592Z,9.30
2018-05-29T10:39:44.064Z,9.33
2018-05-29T10:40:46.700Z,10.00
2018-05-29T10:41:49.204Z,9.83
2018-05-29T10:42:51.683Z,9.37
2018-05-29T10:43:54.148Z,9.33
2018-05-29T10:44:56.619Z,10.10
2018-05-29T10:45:59.398Z,9.77
2018-05-29T10:47:02.664Z,9.90
2018-05-29T10:48:05.136Z,9.33
2018-05-29T10:49:07.596Z,9.77
2018-05-29T10:50:10.414Z,9.13
2018-05-29T10:51:13.286Z,9.27
2018-05-29T10:52:15.793Z,9.33
2018-05-29T10:53:18.260Z,9.00
2018-05-29T10:54:20.732Z,10.40
2018-05-29T10:55:24.988Z,9.93
2018-05-29T10:56:27.802Z,9.50
2018-05-29T10:57:31.811Z,9.37
2018-05-29T10:58:35.043Z,10.57
2018-05-29T10:59:37.520Z,10.17
2018-05-29T11:00:40.174Z,9.77
2018-05-29T11:01:42.667Z,9.53
2018-05-29T11:02:45.155Z,9.20
2018-05-29T11:03:47.623Z,9.40
2018-05-29T11:04:50.095Z,9.83
2018-05-29T11:05:52.847Z,8.43
2018-05-29T11:06:55.381Z,8.53
2018-05-29T11:07:58.591Z,8.87
2018-05-29T11:09:01.059Z,8.77
2018-05-29T11:10:03.533Z,10.57
2018-05-29T11:11:08.912Z,9.70
2018-05-29T11:12:11.412Z,9.70
2018-05-29T11:13:13.914Z,9.13
2018-05-29T11:14:17.176Z,8.53
2018-05-29T11:15:19.897Z,8.40
2018-05-29T11:16:22.569Z,8.13
2018-05-29T11:17:25.032Z,8.67
2018-05-29T11:18:27.524Z,9.30
2018-05-29T11:19:29.988Z,9.40
2018-05-29T11:20:32.625Z,8.17
2018-05-29T11:21:35.108Z,7.87
2018-05-29T11:22:37.574Z,8.07
2018-05-29T11:23:40.062Z,8.40
2018-05-29T11:24:42.520Z,7.93
2018-05-29T11:25:45.356Z,8.20
2018-05-29T11:26:47.832Z,7.73
2018-05-29T11:27:50.348Z,8.80
2018-05-29T11:28:52.840Z,8.63
2018-05-29T11:29:55.315Z,8.33
2018-05-29T11:30:58.599Z,8.43
2018-05-29T11:32:01.096Z,8.00
2018-05-29T11:33:03.560Z,8.40
2018-05-29T11:34:06.044Z,8.17
2018-05-29T11:35:08.763Z,8.63
2018-05-29T11:36:11.440Z,8.60
2018-05-29T11:37:13.927Z,8.00
2018-05-29T11:38:16.392Z,8.30
2018-05-29T11:39:18.882Z,8.30
2018-05-29T11:40:22.107Z,8.97
2018-05-29T11:41:24.879Z,8.43
2018-05-29T11:42:27.363Z,9.73
2018-05-29T11:43:29.887Z,9.57
2018-05-29T11:44:32.339Z,9.43
2018-05-29T11:45:35.863Z,8.97
2018-05-29T11:46:38.386Z,9.57
2018-05-29T11:47:40.867Z,9.60
2018-05-29T11:48:44.100Z,8.27
2018-05-29T11:49:46.581Z,8.53
2018-05-29T11:50:49.315Z,8.83
2018-05-29T11:51:51.812Z,8.20
2018-05-29T11:52:54.280Z,8.40
2018-05-29T11:53:56.744Z,8.10
2018-05-29T11:54:59.280Z,7.90
2018-05-29T11:56:02.756Z,8.63
2018-05-29T11:57:05.243Z,8.33
2018-05-29T11:58:07.715Z,7.77
2018-05-29T11:59:10.185Z,8.23
2018-05-29T12:00:12.741Z,8.30
2018-05-29T12:01:15.249Z,8.23
2018-05-29T12:02:18.491Z,9.07
2018-05-29T12:03:20.952Z,7.90
2018-05-29T12:04:23.419Z,7.57
2018-05-29T12:05:26.522Z,7.27
2018-05-29T12:06:29.102Z,7.57
2018-05-29T12:07:31.578Z,6.87
2018-05-29T12:08:34.812Z,7.00
2018-05-29T12:09:37.271Z,6.83
2018-05-29T12:10:40.122Z,9.37
2018-05-29T12:11:42.647Z,7.87
2018-05-29T12:12:45.107Z,6.50
2018-05-29T12:13:47.674Z,7.50
2018-05-29T12:14:50.160Z,7.30
2018-05-29T12:15:54.418Z,7.07
2018-05-29T12:16:57.683Z,6.17
2018-05-29T12:18:00.140Z,5.40
2018-05-29T12:19:02.610Z,5.87
2018-05-29T12:20:05.071Z,6.80
2018-05-29T12:21:07.877Z,7.07
2018-05-29T12:22:11.128Z,6.33
2018-05-29T12:23:13.591Z,6.50
2018-05-29T12:24:16.060Z,6.43
2018-05-29T12:25:18.766Z,6.77
2018-05-29T12:26:21.507Z,6.87
2018-05-29T12:27:23.987Z,6.53
2018-05-29T12:28:26.452Z,6.43
2018-05-29T12:29:28.915Z,6.13
2018-05-29T12:30:31.653Z,6.67
2018-05-29T12:31:34.174Z,6.67
2018-05-29T12:32:36.642Z,6.73
2018-05-29T12:33:39.122Z,5.83
2018-05-29T12:34:42.347Z,6.00
2018-05-29T12:35:45.005Z,6.10
2018-05-29T12:36:47.516Z,5.70
2018-05-29T12:37:49.981Z,5.97
2018-05-29T12:38:52.446Z,5.97
2018-05-29T12:39:54.907Z,5.73
2018-05-29T12:40:57.728Z,5.90
2018-05-29T12:42:00.246Z,6.00
2018-05-29T12:43:02.708Z,6.60
2018-05-29T12:44:05.176Z,6.30
2018-05-29T12:45:08.610Z,6.23
2018-05-29T12:46:11.345Z,6.17
2018-05-29T12:47:14.604Z,6.20
2018-05-29T12:48:17.068Z,5.97
2018-05-29T12:49:19.532Z,5.97
2018-05-29T12:50:22.364Z,5.70
2018-05-29T12:51:25.135Z,5.83
2018-05-29T12:52:27.659Z,6.30
2018-05-29T12:53:30.120Z,5.63
2018-05-29T12:54:34.084Z,6.27
2018-05-29T12:55:38.830Z,5.70
2018-05-29T12:56:41.320Z,5.90
2018-05-29T12:57:44.875Z,6.03
2018-05-29T12:58:47.336Z,5.80
2018-05-29T12:59:49.799Z,5.87
2018-05-29T13:00:52.317Z,5.73
2018-05-29T13:01:54.784Z,6.20
2018-05-29T13:02:57.280Z,6.20
2018-05-29T13:03:59.743Z,5.90
2018-05-29T13:05:02.211Z,6.53
2018-05-29T13:06:04.959Z,7.07
2018-05-29T13:07:07.461Z,6.90
2018-05-29T13:08:09.952Z,8.07
2018-05-29T13:09:12.416Z,7.27
2018-05-29T13:10:15.166Z,7.33
2018-05-29T13:11:18.040Z,7.10
2018-05-29T13:12:21.312Z,6.50
2018-05-29T13:13:23.796Z,6.90
2018-05-29T13:14:26.260Z,7.13
2018-05-29T13:15:29.082Z,6.87
2018-05-29T13:16:31.584Z,7.00
2018-05-29T13:17:34.044Z,6.87
2018-05-29T13:18:36.536Z,7.13
2018-05-29T13:19:38.995Z,6.73
2018-05-29T13:20:41.711Z,7.37
2018-05-29T13:21:44.208Z,7.13
2018-05-29T13:22:46.680Z,7.13
2018-05-29T13:23:49.167Z,6.87
2018-05-29T13:24:51.628Z,7.17
2018-05-29T13:25:54.441Z,6.87
2018-05-29T13:26:56.946Z,6.80
2018-05-29T13:27:59.429Z,7.20
2018-05-29T13:29:02.196Z,6.83
2018-05-29T13:30:04.837Z,7.40
2018-05-29T13:31:07.479Z,7.60
2018-05-29T13:32:09.972Z,7.67
2018-05-29T13:33:12.440Z,7.10
2018-05-29T13:34:14.928Z,7.50
2018-05-29T13:35:17.689Z,7.50
2018-05-29T13:36:21.233Z,7.23
2018-05-29T13:37:23.728Z,7.63
2018-05-29T13:38:26.200Z,7.10
2018-05-29T13:39:28.683Z,7.53
2018-05-29T13:40:31.417Z,7.17
2018-05-29T13:41:33.903Z,6.90
2018-05-29T13:42:36.371Z,6.63